createdAt,value
2023-02-23T00:03:26.743Z,14.02
2023-02-23T00:11:57.496Z,14.03
2023-02-23T00:16:16.847Z,14
2023-02-23T00:20:36.390Z,13.99
2023-02-23T00:25:32.743Z,13.69
2023-02-23T00:31:06.380Z,13.95
2023-02-23T00:34:48.715Z,13.95
2023-02-23T00:37:54.044Z,13.95
2023-02-23T00:40:59.336Z,13.94
2023-02-23T00:45:18.771Z,13.93
2023-02-23T00:50:15.231Z,13.92
2023-02-23T00:53:57.643Z,13.94
2023-02-23T00:59:31.185Z,13.92
2023-02-23T01:04:27.733Z,13.91
2023-02-23T01:10:21.944Z,13.9
2023-02-23T01:12:50.182Z,13.91
2023-02-23T01:15:55.565Z,13.9
2023-02-23T01:19:00.828Z,13.89
2023-02-23T01:24:34.353Z,13.88
2023-02-23T01:27:39.685Z,13.84
2023-02-23T01:32:36.194Z,13.84
2023-02-23T01:37:32.634Z,13.86
2023-02-23T01:40:00.854Z,13.86
2023-02-23T01:43:06.225Z,13.83
2023-02-23T01:46:11.548Z,13.81
2023-02-23T01:54:13.281Z,13.81
2023-02-23T01:58:32.715Z,13.41
2023-02-23T02:01:00.941Z,13.8
2023-02-23T02:04:06.310Z,13.78
2023-02-23T02:07:11.598Z,13.76
2023-02-23T02:14:36.325Z,13.77
2023-02-23T02:19:32.839Z,13.42
2023-02-23T02:26:04.131Z,13.74
2023-02-23T02:29:09.471Z,13.73
2023-02-23T02:32:14.783Z,13.73
2023-02-23T02:34:43.015Z,13.74
2023-02-23T02:37:11.218Z,13.73
2023-02-23T02:40:16.620Z,13.73
2023-02-23T02:42:44.829Z,13.73
2023-02-23T02:45:13.065Z,13.71
2023-02-23T02:48:55.495Z,13.71
2023-02-23T02:52:00.725Z,13.7
2023-02-23T02:54:29.013Z,13.71
2023-02-23T02:58:11.330Z,13.69
2023-02-23T03:03:07.842Z,13.67
2023-02-23T03:07:27.282Z,13.65
2023-02-23T03:09:55.530Z,13.64
2023-02-23T03:13:00.824Z,13.67
2023-02-23T03:16:06.193Z,13.66
2023-02-23T03:19:11.430Z,13.64
2023-02-23T03:21:39.725Z,13.64
2023-02-23T03:26:36.165Z,13.65
2023-02-23T03:31:32.697Z,13.35
2023-02-23T03:34:00.912Z,13.64
2023-02-23T03:37:06.266Z,13.62
2023-02-23T03:40:11.595Z,13.6
2023-02-23T03:43:16.881Z,13.61
2023-02-23T03:49:27.452Z,13.62
2023-02-23T03:52:32.870Z,13.24
2023-02-23T03:56:15.278Z,13.6
2023-02-23T03:58:35.225Z,13.61
2023-02-23T04:01:03.516Z,13.59
2023-02-23T04:08:28.283Z,13.58
2023-02-23T04:14:38.925Z,13.58
2023-02-23T04:17:07.054Z,13.57
2023-02-23T04:20:12.353Z,13.57
2023-02-23T04:23:54.781Z,13.57
2023-02-23T04:29:28.330Z,13.56
2023-02-23T04:34:24.775Z,13.56
2023-02-23T04:37:30.100Z,13.56
2023-02-23T04:40:35.418Z,13.55
2023-02-23T04:46:25.602Z,13.49
2023-02-23T04:51:22.082Z,13.52
2023-02-23T04:55:04.514Z,13.52
2023-02-23T04:58:09.753Z,13.51
2023-02-23T05:00:38.026Z,13.51
2023-02-23T05:04:20.384Z,13.52
2023-02-23T05:08:02.772Z,13.52
2023-02-23T05:12:22.221Z,13.51
2023-02-23T05:15:27.523Z,13.5
2023-02-23T05:20:24.021Z,13.51
2023-02-23T05:25:20.474Z,13.48
2023-02-23T05:29:23.560Z,13.48
2023-02-23T05:33:05.908Z,13.48
2023-02-23T05:35:34.195Z,13.48
2023-02-23T05:38:02.445Z,13.48
2023-02-23T05:42:21.836Z,13.49
2023-02-23T05:49:11.141Z,13.46
2023-02-23T05:54:07.065Z,13.45
2023-02-23T05:58:25.465Z,13.46
2023-02-23T06:03:21.972Z,13.43
2023-02-23T06:09:32.588Z,13.39
2023-02-23T06:14:29.081Z,13.39
2023-02-23T06:16:57.423Z,13.37
2023-02-23T06:20:02.653Z,13.37
2023-02-23T06:23:45.043Z,13.35
2023-02-23T06:26:13.236Z,13.33
2023-02-23T06:31:09.834Z,13.31
2023-02-23T06:33:38.204Z,13.29
2023-02-23T06:36:06.250Z,13.28
2023-02-23T06:41:02.732Z,13.27
2023-02-23T06:45:22.162Z,13.25
2023-02-23T06:49:00.445Z,13.21
2023-02-23T06:52:05.748Z,13.2
2023-02-23T06:55:11.061Z,13.1
2023-02-23T07:01:21.686Z,13.1
2023-02-23T07:06:18.162Z,13.08
2023-02-23T07:12:28.805Z,13.16
2023-02-23T07:17:25.318Z,13.19
2023-02-23T07:22:21.831Z,13.21
2023-02-23T07:25:05.539Z,13.21
2023-02-23T07:27:55.355Z,13.22
2023-02-23T07:31:37.924Z,13.23
2023-02-23T07:38:25.431Z,13.25
2023-02-23T07:43:21.883Z,13.24
2023-02-23T07:50:26.162Z,13.25
2023-02-23T07:55:22.679Z,13.25
2023-02-23T07:57:50.874Z,13.25
2023-02-23T08:00:19.142Z,13.24
2023-02-23T08:03:24.475Z,13.26
2023-02-23T08:07:06.836Z,13.25
2023-02-23T08:11:26.264Z,13.24
2023-02-23T08:14:31.572Z,13.24
2023-02-23T08:19:28.080Z,13.28
2023-02-23T08:26:15.764Z,13.3
2023-02-23T08:28:43.978Z,13.31
2023-02-23T08:31:49.500Z,13.34
2023-02-23T08:34:54.593Z,13.34
2023-02-23T08:37:22.873Z,13.36
2023-02-23T08:43:33.492Z,13.39
2023-02-23T08:49:06.995Z,13.4
2023-02-23T08:51:35.295Z,13.41
2023-02-23T08:54:03.612Z,13.25
2023-02-23T08:57:09.832Z,13.38
2023-02-23T09:00:43.000Z,13.37
2023-02-23T09:03:48.300Z,13.38
2023-02-23T09:06:16.597Z,13.39
2023-02-23T09:08:44.852Z,13.43
2023-02-23T09:11:50.130Z,13.49
2023-02-23T09:14:55.526Z,13.52
2023-02-23T09:18:00.724Z,13.56
2023-02-23T09:25:25.516Z,13.59
2023-02-23T09:30:59.052Z,13.64
2023-02-23T09:35:55.552Z,13.55
2023-02-23T09:39:00.826Z,13.74
2023-02-23T09:42:06.155Z,13.77
2023-02-23T09:44:34.398Z,13.78
2023-02-23T09:47:02.695Z,13.84
2023-02-23T09:50:45.008Z,13.86
2023-02-23T09:53:50.767Z,13.91
2023-02-23T09:58:09.741Z,13.96
2023-02-23T10:03:06.265Z,14
2023-02-23T10:08:02.771Z,14.05
2023-02-23T10:11:08.044Z,14.07
2023-02-23T10:14:50.427Z,14.05
2023-02-23T10:18:45.547Z,14.06
2023-02-23T10:21:01.035Z,14.08
2023-02-23T10:24:18.810Z,14.09
2023-02-23T10:28:01.211Z,14.12
2023-02-23T10:31:43.719Z,14.15
2023-02-23T10:34:11.841Z,14.19
2023-02-23T10:40:22.493Z,14.32
2023-02-23T10:46:33.365Z,14.48
2023-02-23T10:49:01.314Z,14.49
2023-02-23T10:52:06.673Z,14.5
2023-02-23T10:54:34.998Z,14.5
2023-02-23T10:57:03.157Z,14.54
2023-02-23T11:00:08.609Z,14.55
2023-02-23T11:02:36.773Z,14.55
2023-02-23T11:05:04.937Z,14.57
2023-02-23T11:14:20.850Z,14.61
2023-02-23T11:26:42.159Z,14.75
2023-02-23T11:30:24.748Z,14.92
2023-02-23T11:34:06.855Z,15.07
2023-02-23T11:36:35.093Z,15.17
2023-02-23T11:39:40.421Z,15.26
2023-02-23T11:43:59.842Z,15.32
2023-02-23T11:49:33.387Z,15.33
2023-02-23T11:54:29.918Z,15.32
2023-02-23T11:58:12.264Z,15.28
2023-02-23T12:01:46.479Z,15.3
2023-02-23T12:04:51.754Z,15.28
2023-02-23T12:07:57.119Z,15.29
2023-02-23T12:11:02.342Z,15.29
2023-02-23T12:14:07.723Z,15.28
2023-02-23T12:21:32.397Z,15.28
2023-02-23T12:27:05.973Z,15.29
2023-02-23T12:32:02.586Z,15.28
2023-02-23T12:36:22.059Z,15.29
2023-02-23T12:42:32.503Z,15.28
2023-02-23T12:45:29.623Z,15.28
2023-02-23T12:47:57.852Z,15.27
2023-02-23T12:51:03.224Z,15.28
2023-02-23T12:58:27.941Z,15.32
2023-02-23T13:03:24.411Z,15.36
2023-02-23T13:08:58.023Z,15.37
2023-02-23T13:12:03.300Z,15.39
2023-02-23T13:15:08.619Z,15.39
2023-02-23T13:17:36.871Z,15.38
2023-02-23T13:23:10.440Z,15.38
2023-02-23T13:26:52.776Z,15.38
2023-02-23T13:30:35.284Z,15.39
2023-02-23T13:37:22.873Z,15.37
2023-02-23T13:39:51.135Z,15.36
2023-02-23T13:45:24.735Z,15.37
2023-02-23T13:50:21.203Z,15.36
2023-02-23T13:54:40.713Z,15.38
2023-02-23T13:57:08.872Z,15.36
2023-02-23T13:59:37.264Z,15.35
2023-02-23T14:03:20.008Z,15.36
2023-02-23T14:14:10.192Z,15.33
2023-02-23T14:16:38.458Z,15.36
2023-02-23T14:19:06.681Z,15.36
2023-02-23T14:21:34.925Z,15.36
2023-02-23T14:24:03.197Z,15.38
2023-02-23T14:27:08.454Z,15.4
2023-02-23T14:30:51.162Z,15.37
2023-02-23T14:34:33.221Z,15.38
2023-02-23T14:40:43.822Z,15.39
2023-02-23T14:43:49.159Z,15.36
2023-02-23T14:49:22.752Z,15.39
2023-02-23T14:56:10.392Z,15.42
2023-02-23T14:58:38.738Z,15.37
2023-02-23T15:01:06.846Z,15.4
2023-02-23T15:03:35.159Z,15.41
2023-02-23T15:06:03.424Z,15.42
2023-02-23T15:09:08.716Z,15.4
2023-02-23T15:12:51.077Z,15.42
2023-02-23T15:15:19.399Z,15.42
2023-02-23T15:18:24.639Z,15.41
2023-02-23T15:22:07.021Z,15.41
2023-02-23T15:25:49.342Z,15.41
2023-02-23T15:29:15.384Z,15.41
2023-02-23T15:32:57.837Z,15.4
2023-02-23T15:35:25.930Z,15.38
2023-02-23T15:40:22.459Z,15.39
2023-02-23T15:46:33.092Z,15.35
2023-02-23T15:51:29.671Z,15.34
2023-02-23T15:55:49.044Z,15.35
2023-02-23T15:58:56.900Z,15.32
2023-02-23T16:07:33.251Z,15.36
2023-02-23T16:12:29.704Z,15.34
2023-02-23T16:17:26.155Z,15.34
2023-02-23T16:19:54.482Z,15.33
2023-02-23T16:24:13.885Z,15.3
2023-02-23T16:29:47.463Z,15.3
2023-02-23T16:32:52.820Z,15.28
2023-02-23T16:36:35.120Z,15.28
2023-02-23T16:42:29.325Z,15.26
2023-02-23T16:47:25.832Z,15.25
2023-02-23T16:51:45.289Z,15.27
2023-02-23T16:54:50.563Z,15.21
2023-02-23T16:59:10.009Z,15.2
2023-02-23T17:04:06.560Z,15.19
2023-02-23T17:09:03.013Z,15.17
2023-02-23T17:13:59.489Z,15.15
2023-02-23T17:17:04.827Z,15.16
2023-02-23T17:21:24.286Z,15.12
2023-02-23T17:25:06.595Z,15.1
2023-02-23T17:28:48.983Z,15.09
2023-02-23T17:33:08.502Z,15.06
2023-02-23T17:38:04.904Z,15.02
2023-02-23T17:45:29.609Z,14.99
2023-02-23T17:55:43.302Z,15.14
2023-02-23T17:58:48.660Z,14.96
2023-02-23T18:01:54.012Z,14.95
2023-02-23T18:07:27.513Z,14.91
2023-02-23T18:10:32.813Z,14.9
2023-02-23T18:15:29.329Z,14.88
2023-02-23T18:17:57.520Z,14.87
2023-02-23T18:21:02.863Z,14.84
2023-02-23T18:24:08.170Z,14.81
2023-02-23T18:31:32.945Z,14.77
2023-02-23T18:36:29.361Z,14.77
2023-02-23T18:38:57.648Z,14.77
2023-02-23T18:42:03.214Z,14.77
2023-02-23T18:45:08.237Z,14.76
2023-02-23T18:50:04.766Z,14.79
2023-02-23T18:54:24.182Z,14.75
2023-02-23T18:59:57.759Z,14.75
2023-02-23T19:03:40.173Z,14.74
2023-02-23T19:06:08.380Z,14.72
2023-02-23T19:16:59.079Z,14.7
2023-02-23T19:21:18.932Z,14.67
2023-02-23T19:25:00.914Z,14.66
2023-02-23T19:28:06.213Z,14.64
2023-02-23T19:31:48.689Z,14.65
2023-02-23T19:37:22.148Z,14.62
2023-02-23T19:44:09.804Z,14.57
2023-02-23T19:46:38.084Z,14.57
2023-02-23T19:49:06.296Z,14.56
2023-02-23T19:51:34.553Z,14.56
2023-02-23T19:54:02.888Z,14.6
2023-02-23T19:58:59.313Z,14.6
2023-02-23T20:04:32.878Z,14.55
2023-02-23T20:08:52.281Z,14.59
2023-02-23T20:11:49.425Z,14.54
2023-02-23T20:14:54.731Z,14.56
2023-02-23T20:18:37.110Z,14.56
2023-02-23T20:26:01.796Z,14.52
2023-02-23T20:30:21.261Z,14.51
2023-02-23T20:34:03.668Z,14.19
2023-02-23T20:37:08.990Z,14.45
2023-02-23T20:39:37.233Z,14.43
2023-02-23T20:42:05.462Z,14.42
2023-02-23T20:45:47.859Z,14.42
2023-02-23T20:51:21.612Z,14.4
2023-02-23T20:58:09.091Z,14.41
2023-02-23T21:01:14.427Z,14.42
2023-02-23T21:03:42.662Z,14.42
2023-02-23T21:08:02.061Z,14.39
2023-02-23T21:11:07.398Z,14.33
2023-02-23T21:14:49.801Z,14.35
2023-02-23T21:18:32.114Z,14.27
2023-02-23T21:26:33.910Z,14.32
2023-02-23T21:31:30.495Z,14.33
2023-02-23T21:37:03.987Z,13.95
2023-02-23T21:40:09.304Z,14.3
2023-02-23T21:42:37.517Z,14.3
2023-02-23T21:45:05.821Z,14.32
2023-02-23T21:47:25.854Z,14.33
2023-02-23T21:49:54.109Z,14.3
2023-02-23T21:52:59.381Z,14.31
2023-02-23T21:56:04.719Z,14.31
2023-02-23T21:59:47.100Z,14.29
2023-02-23T22:05:20.677Z,14.19
2023-02-23T22:11:31.249Z,14.14
2023-02-23T22:13:59.566Z,14.12
2023-02-23T22:17:04.808Z,14.12
2023-02-23T22:20:10.180Z,14.14
2023-02-23T22:24:29.590Z,14.18
2023-02-23T22:32:31.485Z,14.2
2023-02-23T22:37:27.886Z,14.21
2023-02-23T22:41:47.305Z,14.15
2023-02-23T22:45:58.519Z,14.2
2023-02-23T22:49:41.059Z,14.2
2023-02-23T23:01:25.053Z,14.14
2023-02-23T23:03:53.319Z,14.2
2023-02-23T23:06:58.700Z,14.1
2023-02-23T23:10:03.921Z,13.63
2023-02-23T23:13:09.247Z,14.08
2023-02-23T23:15:37.574Z,14.08
2023-02-23T23:18:05.741Z,14.04
2023-02-23T23:21:48.094Z,14.02
2023-02-23T23:24:53.575Z,14
2023-02-23T23:27:58.765Z,14.02
2023-02-23T23:33:32.258Z,14.01
2023-02-23T23:43:25.420Z,13.89
2023-02-23T23:46:14.279Z,13.91
2023-02-23T23:53:01.929Z,13.94
2023-02-23T23:56:07.216Z,13.92
2023-02-23T23:58:35.506Z,13.93
